createdAt,value
2019-04-29T00:01:10.544Z,2.50
2019-04-29T00:03:39.885Z,2.50
2019-04-29T00:06:09.233Z,2.57
2019-04-29T00:08:38.941Z,2.50
2019-04-29T00:11:09.157Z,2.43
2019-04-29T00:13:38.850Z,2.50
2019-04-29T00:16:18.326Z,2.97
2019-04-29T00:19:09.377Z,2.50
2019-04-29T00:21:40.734Z,2.80
2019-04-29T00:24:10.090Z,2.80
2019-04-29T00:26:39.366Z,3.07
2019-04-29T00:29:08.719Z,2.63
2019-04-29T00:31:38.777Z,2.83
2019-04-29T00:34:08.114Z,2.90
2019-04-29T00:36:43.941Z,3.00
2019-04-29T00:39:35.138Z,2.90
2019-04-29T00:42:22.285Z,3.07
2019-04-29T00:44:51.641Z,3.13
2019-04-29T00:47:21.149Z,3.13
2019-04-29T00:49:50.493Z,3.20
2019-04-29T00:52:19.837Z,3.30
2019-04-29T00:54:57.945Z,3.30
2019-04-29T00:57:27.221Z,3.20
2019-04-29T00:59:56.502Z,3.33
2019-04-29T01:02:25.857Z,3.40
2019-04-29T01:04:55.225Z,5.53
2019-04-29T01:07:24.548Z,5.80
2019-04-29T01:09:53.890Z,3.70
2019-04-29T01:12:23.201Z,3.67
2019-04-29T01:14:52.485Z,3.40
2019-04-29T01:17:21.890Z,3.67
2019-04-29T01:19:51.225Z,3.87
2019-04-29T01:22:20.641Z,3.50
2019-04-29T01:24:49.998Z,3.80
2019-04-29T01:27:24.053Z,3.60
2019-04-29T01:29:53.361Z,3.97
2019-04-29T01:32:23.529Z,3.80
2019-04-29T01:34:54.578Z,3.50
2019-04-29T01:37:41.924Z,3.90
2019-04-29T01:40:29.632Z,3.60
2019-04-29T01:42:58.975Z,4.00
2019-04-29T01:45:28.331Z,3.80
2019-04-29T01:47:57.673Z,3.67
2019-04-29T01:50:27.030Z,3.90
2019-04-29T01:52:56.342Z,3.67
2019-04-29T01:55:25.697Z,4.17
2019-04-29T01:57:55.039Z,4.20
2019-04-29T02:00:24.328Z,4.77
2019-04-29T02:02:54.381Z,3.90
2019-04-29T02:05:23.713Z,4.37
2019-04-29T02:07:52.984Z,4.30
2019-04-29T02:10:30.499Z,4.20
2019-04-29T02:12:59.777Z,3.90
2019-04-29T02:15:29.120Z,3.63
2019-04-29T02:17:58.437Z,3.80
2019-04-29T02:20:27.757Z,4.07
2019-04-29T02:23:20.471Z,4.00
2019-04-29T02:25:50.632Z,4.43
2019-04-29T02:28:19.910Z,4.10
2019-04-29T02:30:50.844Z,4.20
2019-04-29T02:33:20.125Z,4.10
2019-04-29T02:35:49.505Z,4.10
2019-04-29T02:38:41.041Z,4.23
2019-04-29T02:41:17.609Z,4.40
2019-04-29T02:43:48.558Z,4.17
2019-04-29T02:46:17.930Z,4.23
2019-04-29T02:48:47.331Z,4.30
2019-04-29T02:51:35.598Z,4.10
2019-04-29T02:54:05.338Z,4.07
2019-04-29T02:56:34.713Z,4.17
2019-04-29T02:59:06.403Z,4.43
2019-04-29T03:01:55.352Z,4.20
2019-04-29T03:04:26.830Z,4.17
2019-04-29T03:06:56.303Z,4.60
2019-04-29T03:09:25.704Z,4.47
2019-04-29T03:11:54.993Z,4.53
2019-04-29T03:14:24.746Z,4.53
2019-04-29T03:16:54.128Z,4.43
2019-04-29T03:19:28.955Z,4.27
2019-04-29T03:21:59.947Z,4.47
2019-04-29T03:24:29.332Z,4.40
2019-04-29T03:26:58.669Z,4.70
2019-04-29T03:29:28.001Z,4.83
2019-04-29T03:31:58.928Z,5.00
2019-04-29T03:34:28.903Z,4.93
2019-04-29T03:36:58.336Z,4.67
2019-04-29T03:39:27.637Z,4.70
2019-04-29T03:41:56.978Z,5.13
2019-04-29T03:44:26.359Z,4.83
2019-04-29T03:46:55.796Z,4.77
2019-04-29T03:49:25.215Z,5.47
2019-04-29T03:51:54.567Z,5.43
2019-04-29T03:54:23.875Z,5.10
2019-04-29T03:56:53.173Z,5.40
2019-04-29T03:59:23.565Z,5.50
2019-04-29T04:02:14.797Z,5.83
2019-04-29T04:05:03.202Z,5.63
2019-04-29T04:07:44.689Z,5.67
2019-04-29T04:10:14.132Z,5.87
2019-04-29T04:12:44.078Z,5.03
2019-04-29T04:15:13.824Z,6.10
2019-04-29T04:17:49.234Z,5.87
2019-04-29T04:20:18.590Z,8.27
2019-04-29T04:22:48.352Z,6.43
2019-04-29T04:25:18.392Z,6.33
2019-04-29T04:27:48.242Z,6.43
2019-04-29T04:30:18.711Z,11.20
2019-04-29T04:32:48.053Z,8.33
2019-04-29T04:35:17.445Z,11.10
2019-04-29T04:37:46.921Z,7.97
2019-04-29T04:40:20.445Z,8.60
2019-04-29T04:42:49.817Z,7.20
2019-04-29T04:45:19.649Z,13.00
2019-04-29T04:47:49.685Z,8.37
2019-04-29T04:50:19.627Z,7.63
2019-04-29T04:52:49.030Z,7.10
2019-04-29T04:55:20.093Z,7.40
2019-04-29T04:57:49.399Z,7.93
2019-04-29T05:00:22.459Z,11.30
2019-04-29T05:02:51.825Z,9.43
2019-04-29T05:05:21.286Z,9.13
2019-04-29T05:07:50.613Z,10.33
2019-04-29T05:10:19.953Z,11.37
2019-04-29T05:12:49.255Z,10.13
2019-04-29T05:15:19.107Z,8.57
2019-04-29T05:17:48.431Z,8.27
2019-04-29T05:20:17.782Z,7.30
2019-04-29T05:22:59.226Z,8.37
2019-04-29T05:25:33.699Z,8.60
2019-04-29T05:28:03.920Z,9.10
2019-04-29T05:30:34.150Z,8.90
2019-04-29T05:33:03.435Z,8.37
2019-04-29T05:35:40.399Z,9.33
2019-04-29T05:38:19.493Z,11.20
2019-04-29T05:40:50.948Z,11.50
2019-04-29T05:43:27.123Z,10.13
2019-04-29T05:46:08.104Z,8.73
2019-04-29T05:48:37.517Z,9.10
2019-04-29T05:51:27.400Z,9.43
2019-04-29T05:53:56.978Z,9.80
2019-04-29T05:56:26.369Z,9.67
2019-04-29T05:58:55.665Z,8.80
2019-04-29T06:01:27.504Z,9.23
2019-04-29T06:03:56.841Z,9.80
2019-04-29T06:06:26.189Z,9.40
2019-04-29T06:08:55.520Z,10.37
2019-04-29T06:11:24.842Z,8.93
2019-04-29T06:13:54.137Z,10.00
2019-04-29T06:16:24.549Z,10.10
2019-04-29T06:18:59.375Z,10.57
2019-04-29T06:21:24.897Z,10.47
2019-04-29T06:23:54.679Z,10.30
2019-04-29T06:26:24.941Z,10.43
2019-04-29T06:28:54.286Z,10.10
2019-04-29T06:31:23.622Z,10.17
2019-04-29T06:33:52.904Z,10.23
2019-04-29T06:36:25.680Z,10.43
2019-04-29T06:38:55.042Z,10.27
2019-04-29T06:41:24.315Z,10.60
2019-04-29T06:43:56.087Z,10.40
2019-04-29T06:46:24.685Z,10.60
2019-04-29T06:48:54.025Z,10.77
2019-04-29T06:51:23.313Z,11.70
2019-04-29T06:53:52.647Z,10.80
2019-04-29T06:56:22.042Z,10.67
2019-04-29T06:58:51.385Z,11.17
2019-04-29T07:01:20.729Z,11.00
2019-04-29T07:03:50.056Z,11.27
2019-04-29T07:06:19.437Z,10.27
2019-04-29T07:08:48.761Z,11.83
2019-04-29T07:11:18.121Z,11.43
2019-04-29T07:13:47.516Z,10.60
2019-04-29T07:16:17.233Z,11.77
2019-04-29T07:18:51.267Z,11.70
2019-04-29T07:21:18.144Z,12.07
2019-04-29T07:23:47.537Z,11.97
2019-04-29T07:26:16.885Z,15.33
2019-04-29T07:28:48.794Z,12.63
2019-04-29T07:31:17.234Z,11.73
2019-04-29T07:33:46.540Z,11.53
2019-04-29T07:36:18.641Z,12.53
2019-04-29T07:38:51.731Z,12.27
2019-04-29T07:41:19.023Z,12.67
2019-04-29T07:43:48.986Z,12.87
2019-04-29T07:46:29.846Z,12.87
2019-04-29T07:49:01.719Z,12.97
2019-04-29T07:51:30.273Z,13.03
2019-04-29T07:53:59.604Z,14.93
2019-04-29T07:56:28.897Z,18.43
2019-04-29T07:58:58.822Z,20.97
2019-04-29T08:01:29.274Z,16.03
2019-04-29T08:03:58.553Z,16.70
2019-04-29T08:06:28.298Z,15.27
2019-04-29T08:09:07.428Z,14.40
2019-04-29T08:11:32.109Z,15.37
2019-04-29T08:14:02.887Z,14.63
2019-04-29T08:16:32.525Z,15.93
2019-04-29T08:19:04.695Z,15.63
2019-04-29T08:21:32.900Z,15.13
2019-04-29T08:24:02.197Z,15.50
2019-04-29T08:26:33.574Z,16.07
2019-04-29T08:29:02.557Z,15.93
2019-04-29T08:31:31.906Z,16.27
2019-04-29T08:34:01.201Z,16.60
2019-04-29T08:36:30.627Z,16.33
2019-04-29T08:39:08.412Z,15.43
2019-04-29T08:41:31.057Z,15.57
2019-04-29T08:44:17.885Z,16.40
2019-04-29T08:46:52.904Z,17.10
2019-04-29T08:49:22.799Z,16.30
2019-04-29T08:51:52.217Z,16.20
2019-04-29T08:54:21.506Z,17.07
2019-04-29T08:57:02.203Z,16.10
2019-04-29T08:59:24.533Z,15.67
2019-04-29T09:01:52.944Z,15.53
2019-04-29T09:04:22.289Z,15.67
2019-04-29T09:06:51.634Z,16.47
2019-04-29T09:09:29.168Z,16.63
2019-04-29T09:11:52.014Z,16.30
2019-04-29T09:14:21.330Z,16.90
2019-04-29T09:16:50.683Z,15.30
2019-04-29T09:19:19.973Z,16.80
2019-04-29T09:21:52.413Z,16.93
2019-04-29T09:24:21.797Z,15.90
2019-04-29T09:26:56.339Z,17.17
2019-04-29T09:29:33.568Z,16.90
2019-04-29T09:32:03.917Z,16.03
2019-04-29T09:34:33.254Z,15.87
2019-04-29T09:37:02.621Z,16.43
2019-04-29T09:39:42.829Z,15.33
2019-04-29T09:42:22.474Z,15.57
2019-04-29T09:45:26.109Z,14.63
2019-04-29T09:47:55.476Z,15.33
2019-04-29T09:50:28.338Z,15.83
2019-04-29T09:52:56.853Z,14.33
2019-04-29T09:55:26.745Z,16.57
2019-04-29T09:57:56.446Z,14.47
2019-04-29T10:00:36.336Z,15.57
2019-04-29T10:03:21.062Z,15.40
2019-04-29T10:06:13.095Z,15.17
2019-04-29T10:08:42.389Z,13.90
2019-04-29T10:11:12.415Z,14.83
2019-04-29T10:13:41.706Z,14.93
2019-04-29T10:16:23.941Z,15.13
2019-04-29T10:19:05.332Z,16.00
2019-04-29T10:21:32.545Z,13.80
2019-04-29T10:24:01.838Z,14.27
2019-04-29T10:26:31.174Z,14.50
2019-04-29T10:29:04.831Z,13.83
2019-04-29T10:31:34.157Z,14.50
2019-04-29T10:34:04.295Z,13.73
2019-04-29T10:36:33.601Z,14.00
2019-04-29T10:39:22.583Z,14.00
2019-04-29T10:41:53.473Z,13.30
2019-04-29T10:44:40.658Z,14.00
2019-04-29T10:47:34.774Z,13.67
2019-04-29T10:50:15.564Z,15.13
2019-04-29T10:52:43.567Z,14.97
2019-04-29T10:55:15.331Z,16.07
2019-04-29T10:57:49.194Z,14.80
2019-04-29T11:00:34.995Z,14.97
2019-04-29T11:03:05.049Z,19.33
2019-04-29T11:05:44.542Z,17.20
2019-04-29T11:08:33.744Z,23.17
2019-04-29T11:11:05.452Z,16.03
2019-04-29T11:13:34.738Z,19.23
2019-04-29T11:16:05.181Z,17.07
2019-04-29T11:18:34.473Z,16.47
2019-04-29T11:21:03.783Z,16.13
2019-04-29T11:23:42.441Z,15.57
2019-04-29T11:26:36.533Z,17.13
2019-04-29T11:29:09.215Z,16.50
2019-04-29T11:31:38.194Z,17.57
2019-04-29T11:34:22.943Z,17.70
2019-04-29T11:36:52.293Z,16.67
2019-04-29T11:39:22.688Z,16.60
2019-04-29T11:41:54.553Z,17.73
2019-04-29T11:44:26.559Z,16.43
2019-04-29T11:46:56.026Z,15.67
2019-04-29T11:49:34.001Z,15.77
2019-04-29T11:52:09.623Z,16.20
2019-04-29T11:54:34.469Z,16.67
2019-04-29T11:57:05.657Z,16.00
2019-04-29T11:59:54.029Z,16.07
2019-04-29T12:02:45.308Z,14.93
2019-04-29T12:05:19.553Z,15.10
2019-04-29T12:07:49.258Z,16.20
2019-04-29T12:10:18.618Z,17.03
2019-04-29T12:12:49.038Z,16.90
2019-04-29T12:15:39.873Z,16.80
2019-04-29T12:18:12.866Z,16.70
2019-04-29T12:20:58.154Z,16.07
2019-04-29T12:23:27.513Z,16.93
2019-04-29T12:25:58.767Z,18.17
2019-04-29T12:28:27.939Z,18.23
2019-04-29T12:31:00.376Z,17.90
2019-04-29T12:33:37.006Z,17.63
2019-04-29T12:36:11.149Z,19.23
2019-04-29T12:38:58.305Z,18.57
2019-04-29T12:41:49.111Z,17.33
2019-04-29T12:44:45.831Z,17.70
2019-04-29T12:47:27.129Z,18.70
2019-04-29T12:49:57.221Z,18.93
2019-04-29T12:52:27.485Z,17.70
2019-04-29T12:54:56.789Z,18.10
2019-04-29T12:57:26.094Z,18.77
2019-04-29T12:59:55.450Z,18.37
2019-04-29T13:02:46.574Z,18.50
2019-04-29T13:05:34.061Z,18.23
2019-04-29T13:08:12.697Z,17.13
2019-04-29T13:10:50.474Z,18.47
2019-04-29T13:13:20.410Z,17.53
2019-04-29T13:16:09.537Z,16.60
2019-04-29T13:18:48.938Z,18.10
2019-04-29T13:21:18.845Z,16.43
2019-04-29T13:23:59.496Z,16.53
2019-04-29T13:26:27.775Z,16.40
2019-04-29T13:29:00.237Z,14.73
2019-04-29T13:31:37.017Z,14.17
2019-04-29T13:33:54.265Z,14.43
2019-04-29T13:36:26.235Z,14.77
2019-04-29T13:38:55.709Z,15.23
2019-04-29T13:41:25.956Z,15.93
2019-04-29T13:44:03.983Z,15.60
2019-04-29T13:46:53.991Z,15.07
2019-04-29T13:49:29.913Z,14.70
2019-04-29T13:52:00.384Z,16.87
2019-04-29T13:54:29.807Z,16.80
2019-04-29T13:57:07.737Z,16.90
2019-04-29T13:59:49.289Z,15.93
2019-04-29T14:02:30.608Z,16.27
2019-04-29T14:05:00.062Z,17.20
2019-04-29T14:07:27.028Z,17.17
2019-04-29T14:09:56.377Z,16.87
2019-04-29T14:12:47.993Z,18.03
2019-04-29T14:14:58.578Z,18.30
2019-04-29T14:17:31.768Z,17.23
2019-04-29T14:19:58.861Z,17.70
2019-04-29T14:22:28.148Z,17.57
2019-04-29T14:24:57.486Z,17.90
2019-04-29T14:27:26.810Z,18.33
2019-04-29T14:29:56.116Z,19.10
2019-04-29T14:32:36.210Z,19.77
2019-04-29T14:35:07.242Z,19.43
2019-04-29T14:37:35.415Z,19.83
2019-04-29T14:40:07.584Z,20.17
2019-04-29T14:42:57.597Z,20.57
2019-04-29T14:45:35.684Z,20.93
2019-04-29T14:48:21.690Z,19.23
2019-04-29T14:50:54.031Z,19.83
2019-04-29T14:53:24.241Z,19.97
2019-04-29T14:55:53.359Z,19.30
2019-04-29T14:58:22.685Z,19.47
2019-04-29T15:01:23.435Z,20.07
2019-04-29T15:04:16.890Z,20.57
2019-04-29T15:06:33.770Z,20.77
2019-04-29T15:09:05.616Z,19.73
2019-04-29T15:11:47.452Z,22.53
2019-04-29T15:14:49.053Z,20.30
2019-04-29T15:17:28.628Z,19.20
2019-04-29T15:20:25.267Z,17.10
2019-04-29T15:22:54.182Z,16.83
2019-04-29T15:25:23.601Z,16.70
2019-04-29T15:27:52.937Z,17.50
2019-04-29T15:30:22.288Z,20.83
2019-04-29T15:32:53.157Z,20.83
2019-04-29T15:35:24.225Z,19.37
2019-04-29T15:37:53.777Z,20.40
2019-04-29T15:40:26.241Z,21.87
2019-04-29T15:42:54.151Z,21.07
2019-04-29T15:45:23.587Z,21.03
2019-04-29T15:47:52.978Z,21.40
2019-04-29T15:50:22.341Z,20.20
2019-04-29T15:52:51.630Z,21.17
2019-04-29T15:55:20.944Z,21.07
2019-04-29T15:57:52.005Z,21.33
2019-04-29T16:00:23.318Z,21.77
2019-04-29T16:02:52.332Z,22.43
2019-04-29T16:05:34.329Z,21.10
2019-04-29T16:08:15.966Z,17.97
2019-04-29T16:11:13.275Z,16.87
2019-04-29T16:13:47.688Z,14.83
2019-04-29T16:16:13.943Z,10.90
2019-04-29T16:18:43.773Z,10.20
2019-04-29T16:21:13.084Z,12.03
2019-04-29T16:23:42.418Z,8.77
2019-04-29T16:26:11.703Z,7.53
2019-04-29T16:28:41.097Z,8.00
2019-04-29T16:31:12.010Z,8.10
2019-04-29T16:33:47.269Z,7.97
2019-04-29T16:36:12.489Z,8.03
2019-04-29T16:38:46.256Z,7.87
2019-04-29T16:41:32.902Z,8.07
2019-04-29T16:44:02.158Z,6.97
2019-04-29T16:46:37.469Z,5.90
2019-04-29T16:49:04.253Z,4.90
2019-04-29T16:51:33.594Z,3.60
2019-04-29T16:54:02.986Z,3.30
2019-04-29T16:56:32.324Z,3.13
2019-04-29T16:59:08.902Z,3.17
2019-04-29T17:01:32.790Z,3.20
2019-04-29T17:04:05.379Z,3.80
2019-04-29T17:06:35.936Z,3.73
2019-04-29T17:09:33.692Z,5.07
2019-04-29T17:12:05.965Z,5.43
2019-04-29T17:15:00.869Z,5.33
2019-04-29T17:17:07.997Z,6.50
2019-04-29T17:19:37.286Z,8.83
2019-04-29T17:22:24.719Z,11.50
2019-04-29T17:24:38.379Z,15.10
2019-04-29T17:27:18.657Z,16.00
2019-04-29T17:30:07.991Z,17.27
2019-04-29T17:32:48.508Z,22.53
2019-04-29T17:35:21.708Z,15.63
2019-04-29T17:37:48.200Z,14.77
2019-04-29T17:40:19.502Z,16.20
2019-04-29T17:42:52.852Z,18.57
2019-04-29T17:45:31.070Z,17.70
2019-04-29T17:48:22.117Z,14.43
2019-04-29T17:50:55.682Z,13.97
2019-04-29T17:53:32.962Z,12.57
2019-04-29T17:56:21.197Z,12.73
2019-04-29T17:58:58.398Z,12.60
2019-04-29T18:01:47.201Z,12.60
2019-04-29T18:04:31.077Z,11.57
2019-04-29T18:07:25.288Z,10.77
2019-04-29T18:10:11.037Z,10.83
2019-04-29T18:12:42.477Z,12.10
2019-04-29T18:15:17.323Z,11.87
2019-04-29T18:17:45.482Z,12.63
2019-04-29T18:20:37.749Z,11.13
2019-04-29T18:23:24.888Z,11.27
2019-04-29T18:26:07.608Z,10.00
2019-04-29T18:28:37.687Z,10.37
2019-04-29T18:31:08.566Z,10.60
2019-04-29T18:33:37.948Z,10.70
2019-04-29T18:36:18.909Z,10.13
2019-04-29T18:38:38.434Z,9.57
2019-04-29T18:41:07.713Z,10.77
2019-04-29T18:43:37.045Z,9.93
2019-04-29T18:46:12.473Z,12.30
2019-04-29T18:48:38.293Z,11.23
2019-04-29T18:51:07.593Z,10.63
2019-04-29T18:53:36.885Z,10.30
2019-04-29T18:56:06.228Z,10.50
2019-04-29T18:58:35.673Z,11.53
2019-04-29T19:01:05.965Z,12.00
2019-04-29T19:03:45.755Z,11.00
2019-04-29T19:06:15.664Z,11.63
2019-04-29T19:08:45.043Z,12.27
2019-04-29T19:11:15.262Z,12.93
2019-04-29T19:13:48.561Z,12.30
2019-04-29T19:16:21.501Z,12.80
2019-04-29T19:18:47.557Z,13.13
2019-04-29T19:21:16.960Z,12.07
2019-04-29T19:23:46.290Z,12.67
2019-04-29T19:26:18.221Z,11.80
2019-04-29T19:28:46.686Z,12.37
2019-04-29T19:31:16.018Z,12.57
2019-04-29T19:33:46.199Z,12.77
2019-04-29T19:36:20.296Z,12.93
2019-04-29T19:38:47.409Z,12.90
2019-04-29T19:41:18.177Z,12.90
2019-04-29T19:43:54.834Z,12.53
2019-04-29T19:46:24.134Z,12.27
2019-04-29T19:48:50.259Z,13.83
2019-04-29T19:51:22.859Z,13.03
2019-04-29T19:53:50.686Z,14.47
2019-04-29T19:56:23.195Z,17.10
2019-04-29T19:58:51.584Z,15.13
2019-04-29T20:01:28.250Z,13.73
2019-04-29T20:04:06.332Z,14.13
2019-04-29T20:06:37.367Z,12.73
2019-04-29T20:09:17.042Z,12.60
2019-04-29T20:11:40.098Z,12.67
2019-04-29T20:14:18.916Z,12.20
2019-04-29T20:17:00.209Z,11.50
2019-04-29T20:19:41.610Z,11.27
2019-04-29T20:22:11.944Z,12.10
2019-04-29T20:24:42.089Z,11.13
2019-04-29T20:27:13.316Z,11.57
2019-04-29T20:29:45.549Z,10.90
2019-04-29T20:32:16.510Z,10.47
2019-04-29T20:34:46.705Z,10.87
2019-04-29T20:37:19.551Z,11.53
2019-04-29T20:39:47.227Z,10.97
2019-04-29T20:42:17.609Z,10.97
2019-04-29T20:44:49.267Z,10.13
2019-04-29T20:47:22.998Z,11.00
2019-04-29T20:49:49.747Z,10.53
2019-04-29T20:52:32.196Z,10.23
2019-04-29T20:55:02.679Z,9.67
2019-04-29T20:57:33.133Z,10.33
2019-04-29T21:00:03.740Z,10.50
2019-04-29T21:02:35.299Z,10.00
2019-04-29T21:05:06.512Z,9.60
2019-04-29T21:07:36.645Z,10.57
2019-04-29T21:10:08.406Z,9.70
2019-04-29T21:12:59.620Z,9.83
2019-04-29T21:15:37.247Z,9.63
2019-04-29T21:18:10.433Z,9.63
2019-04-29T21:20:37.589Z,9.67
2019-04-29T21:23:06.921Z,10.60
2019-04-29T21:25:37.160Z,10.77
2019-04-29T21:28:07.113Z,11.37
2019-04-29T21:30:42.606Z,10.77
2019-04-29T21:33:14.221Z,11.53
2019-04-29T21:35:49.605Z,11.43
2019-04-29T21:39:01.875Z,11.23
2019-04-29T21:41:36.672Z,11.30
2019-04-29T21:44:06.628Z,11.03
2019-04-29T21:46:37.275Z,11.57
2019-04-29T21:49:11.567Z,12.57
2019-04-29T21:51:41.845Z,11.53
2019-04-29T21:54:09.683Z,11.67
2019-04-29T21:56:46.207Z,11.60
2019-04-29T21:59:12.281Z,12.63
2019-04-29T22:01:42.365Z,11.60
2019-04-29T22:04:12.357Z,12.40
2019-04-29T22:06:42.081Z,12.63
2019-04-29T22:09:12.493Z,12.47
2019-04-29T22:11:43.203Z,13.43
2019-04-29T22:14:14.107Z,13.37
2019-04-29T22:16:49.146Z,12.73
2019-04-29T22:19:17.406Z,13.37
2019-04-29T22:21:46.408Z,12.70
2019-04-29T22:24:15.754Z,11.93
2019-04-29T22:26:45.192Z,12.90
2019-04-29T22:29:14.473Z,12.53
2019-04-29T22:31:45.809Z,12.67
2019-04-29T22:34:19.100Z,12.53
2019-04-29T22:36:48.201Z,13.17
2019-04-29T22:39:21.656Z,13.63
2019-04-29T22:42:23.493Z,13.13
2019-04-29T22:44:52.653Z,12.57
2019-04-29T22:47:23.543Z,13.40
2019-04-29T22:49:53.837Z,13.57
2019-04-29T22:52:25.481Z,12.57
2019-04-29T22:54:57.964Z,13.07
2019-04-29T22:57:28.226Z,13.33
2019-04-29T22:59:57.284Z,12.27
2019-04-29T23:02:28.497Z,12.43
2019-04-29T23:04:58.553Z,12.73
2019-04-29T23:07:27.850Z,12.57
2019-04-29T23:09:57.534Z,12.20
2019-04-29T23:12:27.449Z,12.70
2019-04-29T23:14:58.564Z,12.47
2019-04-29T23:17:27.859Z,12.70
2019-04-29T23:20:02.330Z,13.90
2019-04-29T23:22:47.135Z,13.57
2019-04-29T23:25:29.910Z,12.67
2019-04-29T23:27:58.509Z,12.30
2019-04-29T23:30:29.204Z,12.50
2019-04-29T23:32:58.741Z,11.30
2019-04-29T23:35:28.029Z,12.30
2019-04-29T23:38:03.908Z,11.73
2019-04-29T23:40:28.432Z,11.60
2019-04-29T23:42:57.737Z,11.30
2019-04-29T23:45:27.026Z,11.20
2019-04-29T23:47:56.421Z,11.40
2019-04-29T23:50:28.088Z,12.07
2019-04-29T23:52:56.783Z,11.00
2019-04-29T23:55:29.255Z,10.77
2019-04-29T23:58:20.601Z,11.07
